Terminal Aerodrome Forecast
Issued by NWS

Home | Current Version | Previous Version | Text Only | Print | Product List | Glossary On
Versions: 1 2 3 4 5 6 7 8 9 10 11 12 13 14 15 16 17 18 19 20 21
000
FTUS43 KDVN 242329
TAFBRL
TAF
KBRL 242329Z 2500/2524 25003KT P6SM FEW045 SCT120
     FM250100 25006KT P6SM VCSH SCT025 BKN050
      TEMPO 2501/2505 3SM -TSRA BR BKN020CB OVC035
     FM250500 31005KT P6SM VCTS SCT030CB BKN050
     FM251400 33006KT P6SM SCT200=

USA.gov is the U.S. government's official web portal to all federal, state and local government web resources and services.